sensor_id;sensor_type;location;lat;lon;timestamp;P1;durP1;ratioP1;P2;durP2;ratioP2
19414;SDS011;9843;48.882;12.592;2022-11-15T00:00:08;30.40;;;24.23;;
19414;SDS011;9843;48.882;12.592;2022-11-15T00:02:35;35.73;;;27.23;;
19414;SDS011;9843;48.882;12.592;2022-11-15T00:05:04;30.50;;;22.17;;
19414;SDS011;9843;48.882;12.592;2022-11-15T00:07:31;32.77;;;25.17;;
19414;SDS011;9843;48.882;12.592;2022-11-15T00:09:58;31.27;;;24.77;;
19414;SDS011;9843;48.882;12.592;2022-11-15T00:12:26;29.93;;;23.83;;
19414;SDS011;9843;48.882;12.592;2022-11-15T00:14:53;26.40;;;20.33;;
19414;SDS011;9843;48.882;12.592;2022-11-15T00:17:21;38.47;;;26.23;;
19414;SDS011;9843;48.882;12.592;2022-11-15T00:19:48;36.57;;;25.00;;
19414;SDS011;9843;48.882;12.592;2022-11-15T00:22:16;29.80;;;22.77;;
19414;SDS011;9843;48.882;12.592;2022-11-15T00:24:43;29.80;;;23.63;;
19414;SDS011;9843;48.882;12.592;2022-11-15T00:27:11;23.87;;;20.73;;
19414;SDS011;9843;48.882;12.592;2022-11-15T00:29:38;31.60;;;20.33;;
19414;SDS011;9843;48.882;12.592;2022-11-15T00:32:08;26.07;;;19.23;;
19414;SDS011;9843;48.882;12.592;2022-11-15T00:34:35;25.43;;;19.83;;
19414;SDS011;9843;48.882;12.592;2022-11-15T00:37:02;27.47;;;21.03;;
19414;SDS011;9843;48.882;12.592;2022-11-15T00:39:31;30.60;;;21.90;;
19414;SDS011;9843;48.882;12.592;2022-11-15T00:41:58;25.40;;;18.80;;
19414;SDS011;9843;48.882;12.592;2022-11-15T00:44:25;23.60;;;19.60;;
19414;SDS011;9843;48.882;12.592;2022-11-15T00:46:52;24.00;;;19.60;;
19414;SDS011;9843;48.882;12.592;2022-11-15T00:49:19;23.90;;;19.43;;
19414;SDS011;9843;48.882;12.592;2022-11-15T00:51:46;25.97;;;20.37;;
19414;SDS011;9843;48.882;12.592;2022-11-15T00:54:13;21.63;;;18.40;;
19414;SDS011;9843;48.882;12.592;2022-11-15T00:56:42;24.13;;;18.33;;
19414;SDS011;9843;48.882;12.592;2022-11-15T00:59:09;24.17;;;19.60;;
19414;SDS011;9843;48.882;12.592;2022-11-15T01:01:36;28.07;;;19.13;;
19414;SDS011;9843;48.882;12.592;2022-11-15T01:04:03;28.23;;;20.20;;
19414;SDS011;9843;48.882;12.592;2022-11-15T01:06:31;22.60;;;20.07;;
19414;SDS011;9843;48.882;12.592;2022-11-15T01:08:58;26.63;;;21.97;;
19414;SDS011;9843;48.882;12.592;2022-11-15T01:11:25;28.30;;;21.13;;
19414;SDS011;9843;48.882;12.592;2022-11-15T01:13:53;30.37;;;22.53;;
19414;SDS011;9843;48.882;12.592;2022-11-15T01:16:21;27.43;;;20.53;;
19414;SDS011;9843;48.882;12.592;2022-11-15T01:18:48;33.23;;;23.03;;
19414;SDS011;9843;48.882;12.592;2022-11-15T01:21:16;24.87;;;22.03;;
19414;SDS011;9843;48.882;12.592;2022-11-15T01:23:43;33.23;;;22.97;;
19414;SDS011;9843;48.882;12.592;2022-11-15T01:26:11;35.03;;;25.20;;
19414;SDS011;9843;48.882;12.592;2022-11-15T01:28:39;23.53;;;18.83;;
19414;SDS011;9843;48.882;12.592;2022-11-15T01:31:10;32.10;;;24.27;;
19414;SDS011;9843;48.882;12.592;2022-11-15T01:33:38;25.73;;;20.27;;
19414;SDS011;9843;48.882;12.592;2022-11-15T01:36:05;27.57;;;21.53;;
19414;SDS011;9843;48.882;12.592;2022-11-15T01:38:32;30.60;;;21.83;;
19414;SDS011;9843;48.882;12.592;2022-11-15T01:40:59;28.87;;;22.80;;
19414;SDS011;9843;48.882;12.592;2022-11-15T01:43:27;28.77;;;22.77;;
19414;SDS011;9843;48.882;12.592;2022-11-15T01:45:56;31.93;;;22.93;;
19414;SDS011;9843;48.882;12.592;2022-11-15T01:48:28;32.60;;;24.03;;
19414;SDS011;9843;48.882;12.592;2022-11-15T01:50:57;27.67;;;20.90;;
19414;SDS011;9843;48.882;12.592;2022-11-15T01:53:24;27.70;;;23.10;;
19414;SDS011;9843;48.882;12.592;2022-11-15T01:55:52;25.20;;;20.87;;
19414;SDS011;9843;48.882;12.592;2022-11-15T01:58:19;27.13;;;22.40;;
19414;SDS011;9843;48.882;12.592;2022-11-15T02:00:47;28.23;;;22.50;;
19414;SDS011;9843;48.882;12.592;2022-11-15T02:03:15;28.20;;;22.57;;
19414;SDS011;9843;48.882;12.592;2022-11-15T02:05:44;29.53;;;22.47;;
19414;SDS011;9843;48.882;12.592;2022-11-15T02:08:11;28.00;;;21.90;;
19414;SDS011;9843;48.882;12.592;2022-11-15T02:10:44;29.20;;;23.10;;
19414;SDS011;9843;48.882;12.592;2022-11-15T02:13:12;31.20;;;22.27;;
19414;SDS011;9843;48.882;12.592;2022-11-15T02:15:40;25.63;;;21.20;;
19414;SDS011;9843;48.882;12.592;2022-11-15T02:18:12;31.20;;;21.60;;
19414;SDS011;9843;48.882;12.592;2022-11-15T02:20:45;27.60;;;21.93;;
19414;SDS011;9843;48.882;12.592;2022-11-15T02:23:17;27.13;;;20.33;;
19414;SDS011;9843;48.882;12.592;2022-11-15T02:25:50;23.37;;;19.03;;
19414;SDS011;9843;48.882;12.592;2022-11-15T02:28:27;25.60;;;20.23;;
19414;SDS011;9843;48.882;12.592;2022-11-15T02:31:03;27.07;;;21.90;;
19414;SDS011;9843;48.882;12.592;2022-11-15T02:33:34;27.77;;;20.67;;
19414;SDS011;9843;48.882;12.592;2022-11-15T02:36:02;24.13;;;20.10;;
19414;SDS011;9843;48.882;12.592;2022-11-15T02:38:34;27.17;;;21.57;;
19414;SDS011;9843;48.882;12.592;2022-11-15T02:41:04;26.90;;;20.40;;
19414;SDS011;9843;48.882;12.592;2022-11-15T02:43:35;20.97;;;18.73;;
19414;SDS011;9843;48.882;12.592;2022-11-15T02:46:23;25.70;;;17.77;;
19414;SDS011;9843;48.882;12.592;2022-11-15T02:49:13;24.47;;;20.27;;
19414;SDS011;9843;48.882;12.592;2022-11-15T02:51:40;29.90;;;20.20;;
19414;SDS011;9843;48.882;12.592;2022-11-15T02:54:10;26.20;;;21.40;;
19414;SDS011;9843;48.882;12.592;2022-11-15T02:56:39;19.20;;;16.60;;
19414;SDS011;9843;48.882;12.592;2022-11-15T02:59:13;29.93;;;20.37;;
19414;SDS011;9843;48.882;12.592;2022-11-15T03:01:52;27.67;;;20.87;;
19414;SDS011;9843;48.882;12.592;2022-11-15T03:04:23;30.17;;;22.10;;
19414;SDS011;9843;48.882;12.592;2022-11-15T03:06:52;28.33;;;20.63;;
19414;SDS011;9843;48.882;12.592;2022-11-15T03:09:23;29.70;;;22.07;;
19414;SDS011;9843;48.882;12.592;2022-11-15T03:11:56;28.73;;;21.83;;
19414;SDS011;9843;48.882;12.592;2022-11-15T03:14:27;28.13;;;20.93;;
19414;SDS011;9843;48.882;12.592;2022-11-15T03:16:58;26.87;;;21.40;;
19414;SDS011;9843;48.882;12.592;2022-11-15T03:19:28;28.37;;;22.17;;
19414;SDS011;9843;48.882;12.592;2022-11-15T03:21:57;33.13;;;24.40;;
19414;SDS011;9843;48.882;12.592;2022-11-15T03:24:26;27.63;;;21.53;;
19414;SDS011;9843;48.882;12.592;2022-11-15T03:26:55;29.23;;;20.17;;
19414;SDS011;9843;48.882;12.592;2022-11-15T03:29:24;27.07;;;22.10;;
19414;SDS011;9843;48.882;12.592;2022-11-15T03:31:54;27.30;;;21.80;;
19414;SDS011;9843;48.882;12.592;2022-11-15T03:34:26;28.10;;;20.63;;
19414;SDS011;9843;48.882;12.592;2022-11-15T03:36:54;31.13;;;21.40;;
19414;SDS011;9843;48.882;12.592;2022-11-15T03:39:21;28.53;;;19.20;;
19414;SDS011;9843;48.882;12.592;2022-11-15T03:41:50;23.13;;;18.57;;
19414;SDS011;9843;48.882;12.592;2022-11-15T03:44:21;21.90;;;19.30;;
19414;SDS011;9843;48.882;12.592;2022-11-15T03:46:55;25.80;;;19.27;;
19414;SDS011;9843;48.882;12.592;2022-11-15T03:49:27;32.97;;;20.77;;
19414;SDS011;9843;48.882;12.592;2022-11-15T03:51:56;25.40;;;18.40;;
19414;SDS011;9843;48.882;12.592;2022-11-15T03:54:23;31.30;;;22.30;;
19414;SDS011;9843;48.882;12.592;2022-11-15T03:56:50;25.80;;;19.93;;
19414;SDS011;9843;48.882;12.592;2022-11-15T03:59:17;28.03;;;20.80;;
19414;SDS011;9843;48.882;12.592;2022-11-15T04:01:45;27.67;;;21.03;;
19414;SDS011;9843;48.882;12.592;2022-11-15T04:04:12;25.70;;;18.90;;
19414;SDS011;9843;48.882;12.592;2022-11-15T04:06:40;25.57;;;21.57;;
19414;SDS011;9843;48.882;12.592;2022-11-15T04:09:07;26.57;;;19.10;;
19414;SDS011;9843;48.882;12.592;2022-11-15T04:11:34;24.37;;;17.17;;
19414;SDS011;9843;48.882;12.592;2022-11-15T04:14:01;25.97;;;18.03;;
19414;SDS011;9843;48.882;12.592;2022-11-15T04:16:29;21.67;;;17.20;;
19414;SDS011;9843;48.882;12.592;2022-11-15T04:18:56;22.63;;;18.27;;
19414;SDS011;9843;48.882;12.592;2022-11-15T04:21:42;19.93;;;15.47;;
19414;SDS011;9843;48.882;12.592;2022-11-15T04:24:27;23.17;;;18.27;;
19414;SDS011;9843;48.882;12.592;2022-11-15T04:26:54;20.50;;;16.57;;
19414;SDS011;9843;48.882;12.592;2022-11-15T04:29:21;20.50;;;16.73;;
19414;SDS011;9843;48.882;12.592;2022-11-15T04:32:00;20.00;;;17.73;;
19414;SDS011;9843;48.882;12.592;2022-11-15T04:34:27;19.23;;;15.63;;
19414;SDS011;9843;48.882;12.592;2022-11-15T04:36:56;18.53;;;15.53;;
19414;SDS011;9843;48.882;12.592;2022-11-15T04:39:38;20.63;;;15.77;;
19414;SDS011;9843;48.882;12.592;2022-11-15T04:42:05;18.93;;;16.03;;
19414;SDS011;9843;48.882;12.592;2022-11-15T04:44:32;19.10;;;16.37;;
19414;SDS011;9843;48.882;12.592;2022-11-15T04:46:59;16.63;;;14.17;;
19414;SDS011;9843;48.882;12.592;2022-11-15T04:49:26;22.07;;;15.80;;
19414;SDS011;9843;48.882;12.592;2022-11-15T04:51:53;19.47;;;16.37;;
19414;SDS011;9843;48.882;12.592;2022-11-15T04:54:22;16.27;;;14.70;;
19414;SDS011;9843;48.882;12.592;2022-11-15T04:56:49;18.93;;;16.13;;
19414;SDS011;9843;48.882;12.592;2022-11-15T04:59:16;16.20;;;14.57;;
19414;SDS011;9843;48.882;12.592;2022-11-15T05:01:43;16.23;;;14.57;;
19414;SDS011;9843;48.882;12.592;2022-11-15T05:04:10;16.20;;;14.63;;
19414;SDS011;9843;48.882;12.592;2022-11-15T05:06:45;20.07;;;16.40;;
19414;SDS011;9843;48.882;12.592;2022-11-15T05:09:13;22.03;;;15.93;;
19414;SDS011;9843;48.882;12.592;2022-11-15T05:11:41;18.93;;;15.57;;
19414;SDS011;9843;48.882;12.592;2022-11-15T05:14:08;15.57;;;14.13;;
19414;SDS011;9843;48.882;12.592;2022-11-15T05:16:36;22.93;;;17.23;;
19414;SDS011;9843;48.882;12.592;2022-11-15T05:19:03;21.93;;;19.57;;
19414;SDS011;9843;48.882;12.592;2022-11-15T05:21:31;23.10;;;17.67;;
19414;SDS011;9843;48.882;12.592;2022-11-15T05:23:58;22.17;;;18.40;;
19414;SDS011;9843;48.882;12.592;2022-11-15T05:26:25;21.43;;;17.80;;
19414;SDS011;9843;48.882;12.592;2022-11-15T05:28:54;21.13;;;17.27;;
19414;SDS011;9843;48.882;12.592;2022-11-15T05:31:21;20.20;;;18.07;;
19414;SDS011;9843;48.882;12.592;2022-11-15T05:33:49;22.87;;;17.13;;
19414;SDS011;9843;48.882;12.592;2022-11-15T05:36:17;24.80;;;19.07;;
19414;SDS011;9843;48.882;12.592;2022-11-15T05:38:47;21.77;;;17.03;;
19414;SDS011;9843;48.882;12.592;2022-11-15T05:41:14;17.57;;;15.23;;
19414;SDS011;9843;48.882;12.592;2022-11-15T05:43:42;23.27;;;16.13;;
19414;SDS011;9843;48.882;12.592;2022-11-15T05:46:11;22.90;;;16.50;;
19414;SDS011;9843;48.882;12.592;2022-11-15T05:48:39;19.67;;;14.53;;
19414;SDS011;9843;48.882;12.592;2022-11-15T05:51:08;22.13;;;15.37;;
19414;SDS011;9843;48.882;12.592;2022-11-15T05:53:35;25.00;;;16.73;;
19414;SDS011;9843;48.882;12.592;2022-11-15T05:56:03;14.47;;;12.90;;
19414;SDS011;9843;48.882;12.592;2022-11-15T05:58:31;16.17;;;14.57;;
19414;SDS011;9843;48.882;12.592;2022-11-15T06:00:58;17.30;;;14.67;;
19414;SDS011;9843;48.882;12.592;2022-11-15T06:03:27;18.07;;;13.60;;
19414;SDS011;9843;48.882;12.592;2022-11-15T06:05:55;16.93;;;12.07;;
19414;SDS011;9843;48.882;12.592;2022-11-15T06:08:23;13.30;;;11.70;;
19414;SDS011;9843;48.882;12.592;2022-11-15T06:10:50;15.73;;;14.23;;
19414;SDS011;9843;48.882;12.592;2022-11-15T06:13:17;25.07;;;16.00;;
19414;SDS011;9843;48.882;12.592;2022-11-15T06:15:44;21.27;;;17.07;;
19414;SDS011;9843;48.882;12.592;2022-11-15T06:18:11;20.80;;;14.27;;
19414;SDS011;9843;48.882;12.592;2022-11-15T06:20:40;24.40;;;17.87;;
19414;SDS011;9843;48.882;12.592;2022-11-15T06:23:07;20.83;;;15.67;;
19414;SDS011;9843;48.882;12.592;2022-11-15T06:25:34;20.13;;;15.93;;
19414;SDS011;9843;48.882;12.592;2022-11-15T06:28:01;18.70;;;16.03;;
19414;SDS011;9843;48.882;12.592;2022-11-15T06:30:28;24.13;;;18.43;;
19414;SDS011;9843;48.882;12.592;2022-11-15T06:32:58;23.60;;;17.43;;
19414;SDS011;9843;48.882;12.592;2022-11-15T06:35:26;22.60;;;17.93;;
19414;SDS011;9843;48.882;12.592;2022-11-15T06:37:55;23.23;;;17.10;;
19414;SDS011;9843;48.882;12.592;2022-11-15T06:40:22;22.87;;;18.27;;
19414;SDS011;9843;48.882;12.592;2022-11-15T06:42:49;19.83;;;16.97;;
19414;SDS011;9843;48.882;12.592;2022-11-15T06:45:16;27.10;;;20.30;;
19414;SDS011;9843;48.882;12.592;2022-11-15T06:47:44;28.47;;;21.27;;
19414;SDS011;9843;48.882;12.592;2022-11-15T06:50:11;25.50;;;20.80;;
19414;SDS011;9843;48.882;12.592;2022-11-15T06:52:38;23.03;;;19.00;;
19414;SDS011;9843;48.882;12.592;2022-11-15T06:55:08;25.87;;;19.13;;
19414;SDS011;9843;48.882;12.592;2022-11-15T06:57:35;26.33;;;19.13;;
19414;SDS011;9843;48.882;12.592;2022-11-15T07:00:02;29.33;;;23.03;;
19414;SDS011;9843;48.882;12.592;2022-11-15T07:02:29;34.70;;;23.67;;
19414;SDS011;9843;48.882;12.592;2022-11-15T07:04:57;32.77;;;22.87;;
19414;SDS011;9843;48.882;12.592;2022-11-15T07:07:24;35.13;;;23.33;;
19414;SDS011;9843;48.882;12.592;2022-11-15T07:09:51;22.13;;;18.57;;
19414;SDS011;9843;48.882;12.592;2022-11-15T07:12:19;25.03;;;20.43;;
19414;SDS011;9843;48.882;12.592;2022-11-15T07:14:46;38.10;;;21.63;;
19414;SDS011;9843;48.882;12.592;2022-11-15T07:17:13;31.20;;;22.47;;
19414;SDS011;9843;48.882;12.592;2022-11-15T07:19:40;28.43;;;20.60;;
19414;SDS011;9843;48.882;12.592;2022-11-15T07:22:08;25.47;;;18.80;;
19414;SDS011;9843;48.882;12.592;2022-11-15T07:24:35;25.73;;;20.50;;
19414;SDS011;9843;48.882;12.592;2022-11-15T07:27:02;37.10;;;26.13;;
19414;SDS011;9843;48.882;12.592;2022-11-15T07:29:30;26.50;;;21.70;;
19414;SDS011;9843;48.882;12.592;2022-11-15T07:31:57;27.17;;;15.93;;
19414;SDS011;9843;48.882;12.592;2022-11-15T07:34:24;34.47;;;20.30;;
19414;SDS011;9843;48.882;12.592;2022-11-15T07:36:52;17.60;;;14.83;;
19414;SDS011;9843;48.882;12.592;2022-11-15T07:39:19;14.97;;;12.60;;
19414;SDS011;9843;48.882;12.592;2022-11-15T07:41:46;13.30;;;9.57;;
19414;SDS011;9843;48.882;12.592;2022-11-15T07:44:14;11.60;;;9.60;;
19414;SDS011;9843;48.882;12.592;2022-11-15T07:46:42;8.67;;;7.87;;
19414;SDS011;9843;48.882;12.592;2022-11-15T07:49:10;12.13;;;6.83;;
19414;SDS011;9843;48.882;12.592;2022-11-15T07:51:37;11.67;;;7.30;;
19414;SDS011;9843;48.882;12.592;2022-11-15T07:54:04;7.77;;;6.77;;
19414;SDS011;9843;48.882;12.592;2022-11-15T07:56:31;11.60;;;8.60;;
19414;SDS011;9843;48.882;12.592;2022-11-15T07:58:58;15.27;;;9.70;;
19414;SDS011;9843;48.882;12.592;2022-11-15T08:01:26;10.57;;;7.87;;
19414;SDS011;9843;48.882;12.592;2022-11-15T08:03:54;8.90;;;7.67;;
19414;SDS011;9843;48.882;12.592;2022-11-15T08:06:21;9.10;;;7.83;;
19414;SDS011;9843;48.882;12.592;2022-11-15T08:08:48;13.97;;;10.33;;
19414;SDS011;9843;48.882;12.592;2022-11-15T08:11:15;18.80;;;10.97;;
19414;SDS011;9843;48.882;12.592;2022-11-15T08:13:42;20.67;;;10.33;;
19414;SDS011;9843;48.882;12.592;2022-11-15T08:16:09;12.20;;;9.90;;
19414;SDS011;9843;48.882;12.592;2022-11-15T08:18:37;14.37;;;10.47;;
19414;SDS011;9843;48.882;12.592;2022-11-15T08:21:05;19.90;;;12.00;;
19414;SDS011;9843;48.882;12.592;2022-11-15T08:23:32;14.57;;;12.47;;
19414;SDS011;9843;48.882;12.592;2022-11-15T08:26:00;14.63;;;11.17;;
19414;SDS011;9843;48.882;12.592;2022-11-15T08:28:28;15.93;;;9.93;;
19414;SDS011;9843;48.882;12.592;2022-11-15T08:30:55;21.13;;;12.43;;
19414;SDS011;9843;48.882;12.592;2022-11-15T08:33:22;18.17;;;12.83;;
19414;SDS011;9843;48.882;12.592;2022-11-15T08:35:49;23.03;;;14.07;;
19414;SDS011;9843;48.882;12.592;2022-11-15T08:38:18;17.00;;;13.37;;
19414;SDS011;9843;48.882;12.592;2022-11-15T08:40:45;20.03;;;15.10;;
19414;SDS011;9843;48.882;12.592;2022-11-15T08:43:12;16.50;;;13.33;;
19414;SDS011;9843;48.882;12.592;2022-11-15T08:45:39;18.87;;;15.00;;
19414;SDS011;9843;48.882;12.592;2022-11-15T08:48:06;15.07;;;13.50;;
19414;SDS011;9843;48.882;12.592;2022-11-15T08:50:33;17.43;;;12.93;;
19414;SDS011;9843;48.882;12.592;2022-11-15T08:53:04;18.53;;;13.90;;
19414;SDS011;9843;48.882;12.592;2022-11-15T08:55:35;17.13;;;13.43;;
19414;SDS011;9843;48.882;12.592;2022-11-15T08:58:02;16.47;;;13.37;;
19414;SDS011;9843;48.882;12.592;2022-11-15T09:00:29;15.83;;;13.00;;
19414;SDS011;9843;48.882;12.592;2022-11-15T09:02:57;15.57;;;12.77;;
19414;SDS011;9843;48.882;12.592;2022-11-15T09:05:24;14.83;;;10.87;;
19414;SDS011;9843;48.882;12.592;2022-11-15T09:07:52;12.97;;;11.60;;
19414;SDS011;9843;48.882;12.592;2022-11-15T09:10:20;13.17;;;10.70;;
19414;SDS011;9843;48.882;12.592;2022-11-15T09:12:48;16.27;;;12.67;;
19414;SDS011;9843;48.882;12.592;2022-11-15T09:15:15;13.37;;;10.80;;
19414;SDS011;9843;48.882;12.592;2022-11-15T09:17:43;14.00;;;11.70;;
19414;SDS011;9843;48.882;12.592;2022-11-15T09:20:10;13.73;;;10.00;;
19414;SDS011;9843;48.882;12.592;2022-11-15T09:22:38;13.90;;;10.20;;
19414;SDS011;9843;48.882;12.592;2022-11-15T09:25:05;14.80;;;10.67;;
19414;SDS011;9843;48.882;12.592;2022-11-15T09:27:33;16.83;;;12.40;;
19414;SDS011;9843;48.882;12.592;2022-11-15T09:30:01;12.30;;;10.20;;
19414;SDS011;9843;48.882;12.592;2022-11-15T09:32:28;15.77;;;8.80;;
19414;SDS011;9843;48.882;12.592;2022-11-15T09:34:56;12.10;;;10.20;;
19414;SDS011;9843;48.882;12.592;2022-11-15T09:37:23;15.60;;;9.73;;
19414;SDS011;9843;48.882;12.592;2022-11-15T09:39:50;12.70;;;8.90;;
19414;SDS011;9843;48.882;12.592;2022-11-15T09:42:25;14.23;;;11.80;;
19414;SDS011;9843;48.882;12.592;2022-11-15T09:45:00;14.20;;;9.80;;
19414;SDS011;9843;48.882;12.592;2022-11-15T09:47:46;17.37;;;10.23;;
19414;SDS011;9843;48.882;12.592;2022-11-15T09:50:17;12.57;;;11.03;;
19414;SDS011;9843;48.882;12.592;2022-11-15T09:52:46;12.60;;;10.80;;
19414;SDS011;9843;48.882;12.592;2022-11-15T09:55:14;13.67;;;11.40;;
19414;SDS011;9843;48.882;12.592;2022-11-15T09:57:47;12.60;;;9.57;;
19414;SDS011;9843;48.882;12.592;2022-11-15T10:00:18;13.13;;;11.33;;
19414;SDS011;9843;48.882;12.592;2022-11-15T10:02:50;15.40;;;11.60;;
19414;SDS011;9843;48.882;12.592;2022-11-15T10:05:22;13.40;;;10.13;;
19414;SDS011;9843;48.882;12.592;2022-11-15T10:07:52;11.37;;;9.67;;
19414;SDS011;9843;48.882;12.592;2022-11-15T10:10:24;14.40;;;10.50;;
19414;SDS011;9843;48.882;12.592;2022-11-15T10:12:53;10.70;;;8.03;;
19414;SDS011;9843;48.882;12.592;2022-11-15T10:15:20;12.57;;;9.43;;
19414;SDS011;9843;48.882;12.592;2022-11-15T10:18:05;13.97;;;9.07;;
19414;SDS011;9843;48.882;12.592;2022-11-15T10:20:34;9.60;;;8.67;;
19414;SDS011;9843;48.882;12.592;2022-11-15T10:23:06;13.90;;;9.90;;
19414;SDS011;9843;48.882;12.592;2022-11-15T10:25:37;13.60;;;9.07;;
19414;SDS011;9843;48.882;12.592;2022-11-15T10:28:06;10.50;;;9.00;;
19414;SDS011;9843;48.882;12.592;2022-11-15T10:30:39;11.63;;;10.20;;
19414;SDS011;9843;48.882;12.592;2022-11-15T10:33:16;16.93;;;10.53;;
19414;SDS011;9843;48.882;12.592;2022-11-15T10:35:44;9.90;;;8.83;;
19414;SDS011;9843;48.882;12.592;2022-11-15T10:38:11;13.63;;;11.70;;
19414;SDS011;9843;48.882;12.592;2022-11-15T10:40:39;11.03;;;9.90;;
19414;SDS011;9843;48.882;12.592;2022-11-15T10:43:13;14.47;;;7.93;;
19414;SDS011;9843;48.882;12.592;2022-11-15T10:45:41;12.57;;;9.93;;
19414;SDS011;9843;48.882;12.592;2022-11-15T10:48:30;16.03;;;7.83;;
19414;SDS011;9843;48.882;12.592;2022-11-15T10:50:58;12.00;;;7.30;;
19414;SDS011;9843;48.882;12.592;2022-11-15T10:53:29;8.30;;;6.63;;
19414;SDS011;9843;48.882;12.592;2022-11-15T10:55:57;10.10;;;5.90;;
19414;SDS011;9843;48.882;12.592;2022-11-15T10:58:31;11.23;;;6.83;;
19414;SDS011;9843;48.882;12.592;2022-11-15T11:01:08;8.63;;;6.87;;
19414;SDS011;9843;48.882;12.592;2022-11-15T11:03:37;8.67;;;5.93;;
19414;SDS011;9843;48.882;12.592;2022-11-15T11:06:06;8.90;;;6.70;;
19414;SDS011;9843;48.882;12.592;2022-11-15T11:08:33;8.23;;;6.07;;
19414;SDS011;9843;48.882;12.592;2022-11-15T11:11:01;7.03;;;5.10;;
19414;SDS011;9843;48.882;12.592;2022-11-15T11:13:30;16.40;;;7.80;;
19414;SDS011;9843;48.882;12.592;2022-11-15T11:15:59;8.13;;;5.60;;
19414;SDS011;9843;48.882;12.592;2022-11-15T11:18:31;11.10;;;5.53;;
19414;SDS011;9843;48.882;12.592;2022-11-15T11:21:02;8.32;;;6.80;;
19414;SDS011;9843;48.882;12.592;2022-11-15T11:23:36;8.20;;;6.13;;
19414;SDS011;9843;48.882;12.592;2022-11-15T11:26:09;9.38;;;7.47;;
19414;SDS011;9843;48.882;12.592;2022-11-15T11:28:41;9.40;;;7.78;;
19414;SDS011;9843;48.882;12.592;2022-11-15T11:31:15;12.68;;;7.03;;
19414;SDS011;9843;48.882;12.592;2022-11-15T11:33:48;9.80;;;8.65;;
19414;SDS011;9843;48.882;12.592;2022-11-15T11:36:21;9.57;;;8.48;;
19414;SDS011;9843;48.882;12.592;2022-11-15T11:38:53;11.68;;;9.18;;
19414;SDS011;9843;48.882;12.592;2022-11-15T11:41:27;8.90;;;8.00;;
19414;SDS011;9843;48.882;12.592;2022-11-15T11:43:59;10.80;;;9.43;;
19414;SDS011;9843;48.882;12.592;2022-11-15T11:49:11;12.10;;;9.68;;
19414;SDS011;9843;48.882;12.592;2022-11-15T11:51:41;11.05;;;9.70;;
19414;SDS011;9843;48.882;12.592;2022-11-15T11:54:11;11.07;;;9.32;;
19414;SDS011;9843;48.882;12.592;2022-11-15T11:56:40;11.40;;;10.17;;
19414;SDS011;9843;48.882;12.592;2022-11-15T11:59:10;12.03;;;10.27;;
19414;SDS011;9843;48.882;12.592;2022-11-15T12:01:40;12.30;;;10.97;;
19414;SDS011;9843;48.882;12.592;2022-11-15T12:04:09;18.13;;;10.90;;
19414;SDS011;9843;48.882;12.592;2022-11-15T12:06:40;14.23;;;10.10;;
19414;SDS011;9843;48.882;12.592;2022-11-15T12:09:14;11.73;;;9.80;;
19414;SDS011;9843;48.882;12.592;2022-11-15T12:11:43;12.90;;;10.57;;
19414;SDS011;9843;48.882;12.592;2022-11-15T12:14:18;10.20;;;9.17;;
19414;SDS011;9843;48.882;12.592;2022-11-15T12:16:45;16.73;;;10.10;;
19414;SDS011;9843;48.882;12.592;2022-11-15T12:19:12;12.23;;;10.30;;
19414;SDS011;9843;48.882;12.592;2022-11-15T12:21:41;10.40;;;8.70;;
19414;SDS011;9843;48.882;12.592;2022-11-15T12:24:15;11.93;;;9.50;;
19414;SDS011;9843;48.882;12.592;2022-11-15T12:26:45;15.40;;;12.93;;
19414;SDS011;9843;48.882;12.592;2022-11-15T12:29:16;11.23;;;9.50;;
19414;SDS011;9843;48.882;12.592;2022-11-15T12:31:47;16.10;;;12.37;;
19414;SDS011;9843;48.882;12.592;2022-11-15T12:34:29;16.10;;;12.67;;
19414;SDS011;9843;48.882;12.592;2022-11-15T12:36:56;14.93;;;11.57;;
19414;SDS011;9843;48.882;12.592;2022-11-15T12:42:36;20.30;;;13.43;;
19414;SDS011;9843;48.882;12.592;2022-11-15T12:45:22;19.37;;;13.03;;
19414;SDS011;9843;48.882;12.592;2022-11-15T12:47:50;21.03;;;15.27;;
19414;SDS011;9843;48.882;12.592;2022-11-15T12:50:21;20.90;;;13.57;;
19414;SDS011;9843;48.882;12.592;2022-11-15T12:56:04;21.30;;;13.60;;
19414;SDS011;9843;48.882;12.592;2022-11-15T12:58:42;19.53;;;14.17;;
19414;SDS011;9843;48.882;12.592;2022-11-15T13:01:10;19.27;;;14.43;;
19414;SDS011;9843;48.882;12.592;2022-11-15T13:04:14;17.83;;;13.73;;
19414;SDS011;9843;48.882;12.592;2022-11-15T13:06:49;19.17;;;14.37;;
19414;SDS011;9843;48.882;12.592;2022-11-15T13:12:03;18.20;;;13.67;;
19414;SDS011;9843;48.882;12.592;2022-11-15T13:14:47;17.13;;;13.67;;
19414;SDS011;9843;48.882;12.592;2022-11-15T13:17:25;18.00;;;13.63;;
19414;SDS011;9843;48.882;12.592;2022-11-15T13:19:53;18.30;;;14.00;;
19414;SDS011;9843;48.882;12.592;2022-11-15T13:22:24;20.30;;;16.73;;
19414;SDS011;9843;48.882;12.592;2022-11-15T13:25:14;19.07;;;13.57;;
19414;SDS011;9843;48.882;12.592;2022-11-15T13:27:44;17.07;;;12.40;;
19414;SDS011;9843;48.882;12.592;2022-11-15T13:30:14;20.17;;;14.80;;
19414;SDS011;9843;48.882;12.592;2022-11-15T13:32:42;25.70;;;14.57;;
19414;SDS011;9843;48.882;12.592;2022-11-15T13:35:09;22.83;;;13.37;;
19414;SDS011;9843;48.882;12.592;2022-11-15T13:37:36;16.53;;;12.77;;
19414;SDS011;9843;48.882;12.592;2022-11-15T13:42:55;19.00;;;14.57;;
19414;SDS011;9843;48.882;12.592;2022-11-15T13:45:24;20.30;;;14.20;;
19414;SDS011;9843;48.882;12.592;2022-11-15T13:47:53;22.37;;;15.17;;
19414;SDS011;9843;48.882;12.592;2022-11-15T13:50:20;16.87;;;13.80;;
19414;SDS011;9843;48.882;12.592;2022-11-15T13:52:48;18.63;;;14.97;;
19414;SDS011;9843;48.882;12.592;2022-11-15T13:55:16;25.90;;;17.00;;
19414;SDS011;9843;48.882;12.592;2022-11-15T13:57:45;16.50;;;13.20;;
19414;SDS011;9843;48.882;12.592;2022-11-15T14:00:26;18.87;;;14.63;;
19414;SDS011;9843;48.882;12.592;2022-11-15T14:02:53;19.83;;;14.93;;
19414;SDS011;9843;48.882;12.592;2022-11-15T14:05:21;24.03;;;16.80;;
19414;SDS011;9843;48.882;12.592;2022-11-15T14:07:55;16.47;;;12.90;;
19414;SDS011;9843;48.882;12.592;2022-11-15T14:10:27;16.87;;;13.83;;
19414;SDS011;9843;48.882;12.592;2022-11-15T14:12:54;21.00;;;13.37;;
19414;SDS011;9843;48.882;12.592;2022-11-15T14:15:27;19.90;;;13.53;;
19414;SDS011;9843;48.882;12.592;2022-11-15T14:17:55;18.47;;;14.87;;
19414;SDS011;9843;48.882;12.592;2022-11-15T14:20:26;20.23;;;14.40;;
19414;SDS011;9843;48.882;12.592;2022-11-15T14:22:56;20.70;;;13.93;;
19414;SDS011;9843;48.882;12.592;2022-11-15T14:25:23;21.47;;;15.00;;
19414;SDS011;9843;48.882;12.592;2022-11-15T14:30:38;21.17;;;14.83;;
19414;SDS011;9843;48.882;12.592;2022-11-15T14:33:16;17.20;;;14.67;;
19414;SDS011;9843;48.882;12.592;2022-11-15T14:35:44;20.73;;;14.17;;
19414;SDS011;9843;48.882;12.592;2022-11-15T14:38:11;19.57;;;14.03;;
19414;SDS011;9843;48.882;12.592;2022-11-15T14:40:39;21.00;;;15.37;;
19414;SDS011;9843;48.882;12.592;2022-11-15T14:43:07;26.00;;;14.07;;
19414;SDS011;9843;48.882;12.592;2022-11-15T14:45:34;19.30;;;13.23;;
19414;SDS011;9843;48.882;12.592;2022-11-15T14:48:03;17.70;;;14.10;;
19414;SDS011;9843;48.882;12.592;2022-11-15T14:50:30;23.27;;;13.43;;
19414;SDS011;9843;48.882;12.592;2022-11-15T14:52:58;16.30;;;12.37;;